sensor_id;sensor_type;location;lat;lon;timestamp;pressure;altitude;pressure_sealevel;temperature;humidity
71107;BME280;58763;47.982;11.516;2024-01-16T00:01:18;93405.88;;;-4.53;73.92
71107;BME280;58763;47.982;11.516;2024-01-16T00:03:44;93413.38;;;-4.56;74.25
71107;BME280;58763;47.982;11.516;2024-01-16T00:06:10;93410.94;;;-4.51;73.98
71107;BME280;58763;47.982;11.516;2024-01-16T00:08:35;93419.25;;;-4.54;73.93
71107;BME280;58763;47.982;11.516;2024-01-16T00:11:04;93419.31;;;-4.61;74.24
71107;BME280;58763;47.982;11.516;2024-01-16T00:13:30;93428.81;;;-4.53;74.06
71107;BME280;58763;47.982;11.516;2024-01-16T00:15:56;93419.25;;;-4.54;74.76
71107;BME280;58763;47.982;11.516;2024-01-16T00:18:22;93424.13;;;-4.51;74.83
71107;BME280;58763;47.982;11.516;2024-01-16T00:20:48;93428.22;;;-4.55;75.33
71107;BME280;58763;47.982;11.516;2024-01-16T00:23:14;93420.66;;;-4.52;74.89
71107;BME280;58763;47.982;11.516;2024-01-16T00:25:40;93434.41;;;-4.43;74.94
71107;BME280;58763;47.982;11.516;2024-01-16T00:28:06;93432.38;;;-4.41;74.86
71107;BME280;58763;47.982;11.516;2024-01-16T00:30:32;93438.25;;;-4.39;74.91
71107;BME280;58763;47.982;11.516;2024-01-16T00:32:59;93433.16;;;-4.34;74.63
71107;BME280;58763;47.982;11.516;2024-01-16T00:35:24;93438.38;;;-4.28;74.72
71107;BME280;58763;47.982;11.516;2024-01-16T00:37:50;93451.75;;;-4.23;74.25
71107;BME280;58763;47.982;11.516;2024-01-16T00:40:15;93444.19;;;-4.19;74.09
71107;BME280;58763;47.982;11.516;2024-01-16T00:42:41;93458.84;;;-4.23;74.22
71107;BME280;58763;47.982;11.516;2024-01-16T00:45:07;93449.09;;;-4.23;74.17
71107;BME280;58763;47.982;11.516;2024-01-16T00:47:32;93456.31;;;-4.11;73.97
71107;BME280;58763;47.982;11.516;2024-01-16T00:49:58;93451.22;;;-4.06;74.57
71107;BME280;58763;47.982;11.516;2024-01-16T00:52:26;93444.53;;;-4.09;74.56
71107;BME280;58763;47.982;11.516;2024-01-16T00:54:52;93466.72;;;-4.16;74.46
71107;BME280;58763;47.982;11.516;2024-01-16T00:57:18;93462.41;;;-4.11;74.39
71107;BME280;58763;47.982;11.516;2024-01-16T00:59:45;93458.31;;;-4.07;74.66
71107;BME280;58763;47.982;11.516;2024-01-16T01:02:12;93466.06;;;-4.12;74.63
71107;BME280;58763;47.982;11.516;2024-01-16T01:04:38;93469.28;;;-4.10;74.17
71107;BME280;58763;47.982;11.516;2024-01-16T01:07:04;93464.00;;;-4.10;74.01
71107;BME280;58763;47.982;11.516;2024-01-16T01:09:32;93455.25;;;-4.04;74.30
71107;BME280;58763;47.982;11.516;2024-01-16T01:11:58;93462.66;;;-3.94;74.04
71107;BME280;58763;47.982;11.516;2024-01-16T01:14:23;93459.91;;;-3.99;73.93
71107;BME280;58763;47.982;11.516;2024-01-16T01:16:51;93462.72;;;-4.01;73.60
71107;BME280;58763;47.982;11.516;2024-01-16T01:19:18;93466.72;;;-3.92;73.92
71107;BME280;58763;47.982;11.516;2024-01-16T01:21:43;93473.38;;;-3.83;73.18
71107;BME280;58763;47.982;11.516;2024-01-16T01:24:10;93483.19;;;-3.90;73.27
71107;BME280;58763;47.982;11.516;2024-01-16T01:26:36;93483.44;;;-3.98;73.71
71107;BME280;58763;47.982;11.516;2024-01-16T01:29:01;93492.22;;;-3.79;73.82
71107;BME280;58763;47.982;11.516;2024-01-16T01:31:27;93492.63;;;-3.76;73.68
71107;BME280;58763;47.982;11.516;2024-01-16T01:33:53;93497.84;;;-3.69;73.28
71107;BME280;58763;47.982;11.516;2024-01-16T01:36:18;93500.75;;;-3.53;72.97
71107;BME280;58763;47.982;11.516;2024-01-16T01:38:44;93494.44;;;-3.76;72.53
71107;BME280;58763;47.982;11.516;2024-01-16T01:41:09;93505.31;;;-3.66;72.47
71107;BME280;58763;47.982;11.516;2024-01-16T01:43:37;93504.25;;;-3.83;73.41
71107;BME280;58763;47.982;11.516;2024-01-16T01:48:59;93507.25;;;-3.80;73.86
71107;BME280;58763;47.982;11.516;2024-01-16T01:51:25;93516.91;;;-3.67;73.13
71107;BME280;58763;47.982;11.516;2024-01-16T01:53:51;93517.13;;;-3.69;72.81
71107;BME280;58763;47.982;11.516;2024-01-16T01:56:18;93511.22;;;-3.64;72.62
71107;BME280;58763;47.982;11.516;2024-01-16T01:58:47;93516.50;;;-3.64;72.49
71107;BME280;58763;47.982;11.516;2024-01-16T02:01:16;93520.09;;;-3.59;72.00
71107;BME280;58763;47.982;11.516;2024-01-16T02:03:46;93514.22;;;-3.61;71.90
71107;BME280;58763;47.982;11.516;2024-01-16T02:06:12;93522.22;;;-3.67;70.99
71107;BME280;58763;47.982;11.516;2024-01-16T02:08:39;93524.19;;;-3.63;71.48
71107;BME280;58763;47.982;11.516;2024-01-16T02:11:05;93528.34;;;-3.73;71.65
71107;BME280;58763;47.982;11.516;2024-01-16T02:13:31;93527.38;;;-3.79;72.02
71107;BME280;58763;47.982;11.516;2024-01-16T02:15:57;93531.84;;;-3.79;72.59
71107;BME280;58763;47.982;11.516;2024-01-16T02:18:23;93523.16;;;-3.86;72.63
71107;BME280;58763;47.982;11.516;2024-01-16T02:20:49;93521.91;;;-3.84;72.22
71107;BME280;58763;47.982;11.516;2024-01-16T02:23:26;93520.28;;;-3.85;72.21
71107;BME280;58763;47.982;11.516;2024-01-16T02:25:53;93526.97;;;-3.82;72.00
71107;BME280;58763;47.982;11.516;2024-01-16T02:28:18;93530.84;;;-3.85;72.64
71107;BME280;58763;47.982;11.516;2024-01-16T02:30:44;93531.63;;;-3.78;72.50
71107;BME280;58763;47.982;11.516;2024-01-16T02:33:09;93526.97;;;-3.82;72.02
71107;BME280;58763;47.982;11.516;2024-01-16T02:35:35;93530.31;;;-3.93;72.59
71107;BME280;58763;47.982;11.516;2024-01-16T02:38:00;93534.59;;;-3.99;72.65
71107;BME280;58763;47.982;11.516;2024-01-16T02:40:26;93534.69;;;-4.12;72.65
71107;BME280;58763;47.982;11.516;2024-01-16T02:42:52;93548.13;;;-4.13;73.36
71107;BME280;58763;47.982;11.516;2024-01-16T02:45:17;93539.88;;;-4.30;73.88
71107;BME280;58763;47.982;11.516;2024-01-16T02:47:43;93530.84;;;-4.47;75.17
71107;BME280;58763;47.982;11.516;2024-01-16T02:50:09;93526.81;;;-4.56;75.28
71107;BME280;58763;47.982;11.516;2024-01-16T02:52:37;93534.75;;;-4.63;75.24
71107;BME280;58763;47.982;11.516;2024-01-16T02:55:03;93532.56;;;-4.72;75.62
71107;BME280;58763;47.982;11.516;2024-01-16T02:57:30;93526.28;;;-4.78;76.10
71107;BME280;58763;47.982;11.516;2024-01-16T02:59:55;93519.38;;;-4.72;75.88
71107;BME280;58763;47.982;11.516;2024-01-16T03:02:21;93523.63;;;-4.65;75.37
71107;BME280;58763;47.982;11.516;2024-01-16T03:04:49;93528.09;;;-4.65;75.32
71107;BME280;58763;47.982;11.516;2024-01-16T03:07:15;93526.03;;;-4.63;75.30
71107;BME280;58763;47.982;11.516;2024-01-16T03:09:41;93524.00;;;-4.61;75.03
71107;BME280;58763;47.982;11.516;2024-01-16T03:12:06;93529.22;;;-4.48;74.53
71107;BME280;58763;47.982;11.516;2024-01-16T03:14:32;93523.31;;;-4.50;74.38
71107;BME280;58763;47.982;11.516;2024-01-16T03:17:03;93533.06;;;-4.44;74.24
71107;BME280;58763;47.982;11.516;2024-01-16T03:19:28;93541.88;;;-4.63;73.92
71107;BME280;58763;47.982;11.516;2024-01-16T03:21:55;93537.78;;;-4.59;74.19
71107;BME280;58763;47.982;11.516;2024-01-16T03:24:21;93538.16;;;-4.49;74.17
71107;BME280;58763;47.982;11.516;2024-01-16T03:26:46;93530.88;;;-4.54;73.79
71107;BME280;58763;47.982;11.516;2024-01-16T03:29:12;93529.63;;;-4.51;73.24
71107;BME280;58763;47.982;11.516;2024-01-16T03:31:37;93543.91;;;-4.65;73.40
71107;BME280;58763;47.982;11.516;2024-01-16T03:34:03;93537.41;;;-4.63;73.01
71107;BME280;58763;47.982;11.516;2024-01-16T03:36:29;93541.47;;;-4.60;72.90
71107;BME280;58763;47.982;11.516;2024-01-16T03:38:54;93535.81;;;-4.70;72.69
71107;BME280;58763;47.982;11.516;2024-01-16T03:41:19;93534.13;;;-4.58;73.06
71107;BME280;58763;47.982;11.516;2024-01-16T03:43:45;93539.00;;;-4.55;72.31
71107;BME280;58763;47.982;11.516;2024-01-16T03:46:11;93542.44;;;-4.55;71.40
71107;BME280;58763;47.982;11.516;2024-01-16T03:48:37;93543.47;;;-4.56;71.67
71107;BME280;58763;47.982;11.516;2024-01-16T03:51:02;93545.94;;;-4.67;71.54
71107;BME280;58763;47.982;11.516;2024-01-16T03:53:28;93548.03;;;-4.89;71.42
71107;BME280;58763;47.982;11.516;2024-01-16T03:55:53;93537.97;;;-5.12;71.08
71107;BME280;58763;47.982;11.516;2024-01-16T03:58:19;93538.78;;;-5.18;71.04
71107;BME280;58763;47.982;11.516;2024-01-16T04:00:45;93542.50;;;-5.58;71.86
71107;BME280;58763;47.982;11.516;2024-01-16T04:03:11;93536.03;;;-5.75;72.07
71107;BME280;58763;47.982;11.516;2024-01-16T04:05:37;93525.94;;;-5.91;72.84
71107;BME280;58763;47.982;11.516;2024-01-16T04:08:02;93521.22;;;-5.83;72.41
71107;BME280;58763;47.982;11.516;2024-01-16T04:10:28;93522.63;;;-5.74;72.59
71107;BME280;58763;47.982;11.516;2024-01-16T04:12:53;93522.22;;;-5.64;72.71
71107;BME280;58763;47.982;11.516;2024-01-16T04:15:19;93520.81;;;-5.60;73.13
71107;BME280;58763;47.982;11.516;2024-01-16T04:17:44;93515.53;;;-5.67;73.43
71107;BME280;58763;47.982;11.516;2024-01-16T04:20:10;93520.63;;;-5.65;73.54
71107;BME280;58763;47.982;11.516;2024-01-16T04:22:36;93521.44;;;-5.71;73.77
71107;BME280;58763;47.982;11.516;2024-01-16T04:25:02;93515.75;;;-5.68;74.07
71107;BME280;58763;47.982;11.516;2024-01-16T04:27:33;93521.84;;;-5.74;74.78
71107;BME280;58763;47.982;11.516;2024-01-16T04:29:59;93524.88;;;-5.64;74.42
71107;BME280;58763;47.982;11.516;2024-01-16T04:32:25;93520.38;;;-5.50;74.42
71107;BME280;58763;47.982;11.516;2024-01-16T04:34:50;93521.63;;;-5.46;73.63
71107;BME280;58763;47.982;11.516;2024-01-16T04:37:16;93530.75;;;-5.49;72.78
71107;BME280;58763;47.982;11.516;2024-01-16T04:39:41;93536.00;;;-5.49;72.97
71107;BME280;58763;47.982;11.516;2024-01-16T04:42:07;93534.38;;;-5.50;73.99
71107;BME280;58763;47.982;11.516;2024-01-16T04:44:32;93534.00;;;-5.53;74.01
71107;BME280;58763;47.982;11.516;2024-01-16T04:46:58;93531.34;;;-5.47;73.93
71107;BME280;58763;47.982;11.516;2024-01-16T04:49:23;93528.69;;;-5.60;73.88
71107;BME280;58763;47.982;11.516;2024-01-16T04:51:49;93522.47;;;-5.72;73.41
71107;BME280;58763;47.982;11.516;2024-01-16T04:54:15;93519.25;;;-5.87;74.68
71107;BME280;58763;47.982;11.516;2024-01-16T04:56:40;93529.34;;;-5.97;75.19
71107;BME280;58763;47.982;11.516;2024-01-16T04:59:06;93528.56;;;-5.98;75.15
71107;BME280;58763;47.982;11.516;2024-01-16T05:01:31;93527.31;;;-6.08;75.52
71107;BME280;58763;47.982;11.516;2024-01-16T05:03:57;93524.50;;;-6.00;75.24
71107;BME280;58763;47.982;11.516;2024-01-16T05:06:22;93523.09;;;-6.03;74.49
71107;BME280;58763;47.982;11.516;2024-01-16T05:08:48;93523.28;;;-6.11;74.38
71107;BME280;58763;47.982;11.516;2024-01-16T05:11:14;93524.84;;;-6.36;76.11
71107;BME280;58763;47.982;11.516;2024-01-16T05:13:39;93517.91;;;-6.63;78.28
71107;BME280;58763;47.982;11.516;2024-01-16T05:16:05;93517.91;;;-6.70;78.42
71107;BME280;58763;47.982;11.516;2024-01-16T05:18:31;93514.88;;;-6.67;77.66
71107;BME280;58763;47.982;11.516;2024-01-16T05:20:58;93511.66;;;-6.56;78.19
71107;BME280;58763;47.982;11.516;2024-01-16T05:23:24;93511.91;;;-6.44;77.02
71107;BME280;58763;47.982;11.516;2024-01-16T05:25:49;93504.41;;;-6.34;76.86
71107;BME280;58763;47.982;11.516;2024-01-16T05:28:15;93517.56;;;-6.34;77.28
71107;BME280;58763;47.982;11.516;2024-01-16T05:30:40;93521.25;;;-6.15;76.91
71107;BME280;58763;47.982;11.516;2024-01-16T05:33:06;93524.91;;;-6.10;76.58
71107;BME280;58763;47.982;11.516;2024-01-16T05:35:32;93529.13;;;-6.09;76.45
71107;BME280;58763;47.982;11.516;2024-01-16T05:37:58;93523.88;;;-6.22;76.33
71107;BME280;58763;47.982;11.516;2024-01-16T05:40:25;93528.53;;;-6.24;77.04
71107;BME280;58763;47.982;11.516;2024-01-16T05:42:50;93523.09;;;-6.09;76.16
71107;BME280;58763;47.982;11.516;2024-01-16T05:45:16;93518.00;;;-6.11;76.11
71107;BME280;58763;47.982;11.516;2024-01-16T05:47:43;93520.84;;;-6.06;76.09
71107;BME280;58763;47.982;11.516;2024-01-16T05:50:09;93526.31;;;-6.07;76.47
71107;BME280;58763;47.982;11.516;2024-01-16T05:52:35;93525.72;;;-5.90;75.64
71107;BME280;58763;47.982;11.516;2024-01-16T05:55:01;93521.06;;;-5.94;75.74
71107;BME280;58763;47.982;11.516;2024-01-16T05:57:29;93513.75;;;-5.79;76.05
71107;BME280;58763;47.982;11.516;2024-01-16T05:59:57;93512.72;;;-5.65;75.46
71107;BME280;58763;47.982;11.516;2024-01-16T06:02:23;93518.59;;;-5.63;73.37
71107;BME280;58763;47.982;11.516;2024-01-16T06:04:49;93505.84;;;-5.86;71.12
71107;BME280;58763;47.982;11.516;2024-01-16T06:07:15;93513.56;;;-5.97;73.20
71107;BME280;58763;47.982;11.516;2024-01-16T06:09:41;93514.16;;;-6.02;74.38
71107;BME280;58763;47.982;11.516;2024-01-16T06:12:07;93521.66;;;-5.99;74.69
71107;BME280;58763;47.982;11.516;2024-01-16T06:14:33;93514.97;;;-6.08;74.27
71107;BME280;58763;47.982;11.516;2024-01-16T06:16:58;93510.72;;;-6.09;75.39
71107;BME280;58763;47.982;11.516;2024-01-16T06:19:24;93517.81;;;-6.09;75.90
71107;BME280;58763;47.982;11.516;2024-01-16T06:21:49;93519.03;;;-6.12;76.20
71107;BME280;58763;47.982;11.516;2024-01-16T06:24:15;93520.25;;;-6.08;76.74
71107;BME280;58763;47.982;11.516;2024-01-16T06:26:41;93528.75;;;-6.12;76.13
71107;BME280;58763;47.982;11.516;2024-01-16T06:29:08;93516.19;;;-6.17;76.14
71107;BME280;58763;47.982;11.516;2024-01-16T06:31:34;93512.53;;;-6.22;77.05
71107;BME280;58763;47.982;11.516;2024-01-16T06:34:00;93515.94;;;-6.42;78.18
71107;BME280;58763;47.982;11.516;2024-01-16T06:36:25;93523.03;;;-6.42;78.55
71107;BME280;58763;47.982;11.516;2024-01-16T06:38:52;93510.88;;;-6.56;79.33
71107;BME280;58763;47.982;11.516;2024-01-16T06:41:17;93510.44;;;-6.53;79.86
71107;BME280;58763;47.982;11.516;2024-01-16T06:43:43;93513.13;;;-6.40;79.62
71107;BME280;58763;47.982;11.516;2024-01-16T06:46:09;93512.91;;;-6.39;79.26
71107;BME280;58763;47.982;11.516;2024-01-16T06:48:36;93508.09;;;-6.28;79.13
71107;BME280;58763;47.982;11.516;2024-01-16T06:51:02;93519.38;;;-6.35;79.53
71107;BME280;58763;47.982;11.516;2024-01-16T06:53:28;93510.88;;;-6.37;79.18
71107;BME280;58763;47.982;11.516;2024-01-16T06:55:53;93518.59;;;-6.35;78.90
71107;BME280;58763;47.982;11.516;2024-01-16T06:58:19;93520.19;;;-6.41;78.80
71107;BME280;58763;47.982;11.516;2024-01-16T07:00:46;93520.63;;;-6.37;79.51
71107;BME280;58763;47.982;11.516;2024-01-16T07:03:12;93519.38;;;-6.41;79.78
71107;BME280;58763;47.982;11.516;2024-01-16T07:05:38;93517.56;;;-6.41;79.71
71107;BME280;58763;47.982;11.516;2024-01-16T07:08:09;93523.03;;;-6.42;79.85
71107;BME280;58763;47.982;11.516;2024-01-16T07:10:35;93521.84;;;-6.26;79.51
71107;BME280;58763;47.982;11.516;2024-01-16T07:13:01;93512.13;;;-6.26;79.63
71107;BME280;58763;47.982;11.516;2024-01-16T07:15:28;93514.75;;;-6.26;79.37
71107;BME280;58763;47.982;11.516;2024-01-16T07:17:53;93513.94;;;-6.20;79.69
71107;BME280;58763;47.982;11.516;2024-01-16T07:20:19;93515.38;;;-6.24;79.71
71107;BME280;58763;47.982;11.516;2024-01-16T07:22:45;93519.81;;;-6.31;80.03
71107;BME280;58763;47.982;11.516;2024-01-16T07:25:11;93515.16;;;-6.29;80.40
71107;BME280;58763;47.982;11.516;2024-01-16T07:27:37;93519.81;;;-6.24;80.45
71107;BME280;58763;47.982;11.516;2024-01-16T07:30:06;93523.66;;;-6.20;80.34
71107;BME280;58763;47.982;11.516;2024-01-16T07:32:32;93526.28;;;-6.20;80.89
71107;BME280;58763;47.982;11.516;2024-01-16T07:34:58;93525.06;;;-6.18;80.52
71107;BME280;58763;47.982;11.516;2024-01-16T07:37:23;93533.78;;;-6.17;80.74
71107;BME280;58763;47.982;11.516;2024-01-16T07:39:49;93530.16;;;-6.10;80.51
71107;BME280;58763;47.982;11.516;2024-01-16T07:42:15;93525.50;;;-6.01;80.69
71107;BME280;58763;47.982;11.516;2024-01-16T07:44:41;93523.69;;;-5.94;80.65
71107;BME280;58763;47.982;11.516;2024-01-16T07:47:07;93523.69;;;-5.81;80.28
71107;BME280;58763;47.982;11.516;2024-01-16T07:49:33;93517.38;;;-5.74;79.70
71107;BME280;58763;47.982;11.516;2024-01-16T07:52:00;93514.13;;;-5.76;80.33
71107;BME280;58763;47.982;11.516;2024-01-16T07:54:26;93517.59;;;-5.82;79.90
71107;BME280;58763;47.982;11.516;2024-01-16T07:56:52;93510.91;;;-5.71;78.67
71107;BME280;58763;47.982;11.516;2024-01-16T07:59:17;93502.81;;;-5.70;78.63
71107;BME280;58763;47.982;11.516;2024-01-16T08:01:43;93506.84;;;-5.61;78.86
71107;BME280;58763;47.982;11.516;2024-01-16T08:04:09;93512.50;;;-5.57;78.94
71107;BME280;58763;47.982;11.516;2024-01-16T08:06:35;93510.28;;;-5.47;78.95
71107;BME280;58763;47.982;11.516;2024-01-16T08:09:00;93513.91;;;-5.41;78.71
71107;BME280;58763;47.982;11.516;2024-01-16T08:11:26;93510.47;;;-5.42;78.60
71107;BME280;58763;47.982;11.516;2024-01-16T08:13:51;93504.78;;;-5.32;78.46
71107;BME280;58763;47.982;11.516;2024-01-16T08:16:17;93512.03;;;-5.15;78.55
71107;BME280;58763;47.982;11.516;2024-01-16T08:18:42;93517.28;;;-5.08;78.05
71107;BME280;58763;47.982;11.516;2024-01-16T08:21:08;93519.22;;;-4.84;77.73
71107;BME280;58763;47.982;11.516;2024-01-16T08:23:34;93516.19;;;-4.81;77.00
71107;BME280;58763;47.982;11.516;2024-01-16T08:25:59;93510.28;;;-4.76;77.26
71107;BME280;58763;47.982;11.516;2024-01-16T08:28:27;93519.94;;;-4.64;77.10
71107;BME280;58763;47.982;11.516;2024-01-16T08:30:53;93518.88;;;-4.50;76.29
71107;BME280;58763;47.982;11.516;2024-01-16T08:33:20;93518.81;;;-4.43;75.69
71107;BME280;58763;47.982;11.516;2024-01-16T08:35:47;93522.47;;;-4.38;75.33
71107;BME280;58763;47.982;11.516;2024-01-16T08:38:12;93523.47;;;-4.32;75.85
71107;BME280;58763;47.982;11.516;2024-01-16T08:40:38;93518.09;;;-4.19;75.18
71107;BME280;58763;47.982;11.516;2024-01-16T08:43:03;93527.78;;;-4.13;74.64
71107;BME280;58763;47.982;11.516;2024-01-16T08:45:29;93524.91;;;-4.05;74.44
71107;BME280;58763;47.982;11.516;2024-01-16T08:47:55;93518.34;;;-3.96;74.36
71107;BME280;58763;47.982;11.516;2024-01-16T08:50:21;93518.53;;;-3.91;74.11
71107;BME280;58763;47.982;11.516;2024-01-16T08:52:46;93516.63;;;-3.84;74.16
71107;BME280;58763;47.982;11.516;2024-01-16T08:55:12;93509.25;;;-3.75;73.98
71107;BME280;58763;47.982;11.516;2024-01-16T08:57:37;93511.16;;;-3.58;73.66
71107;BME280;58763;47.982;11.516;2024-01-16T09:00:04;93499.66;;;-3.45;73.09
71107;BME280;58763;47.982;11.516;2024-01-16T09:02:30;93494.25;;;-3.32;72.57
71107;BME280;58763;47.982;11.516;2024-01-16T09:04:57;93490.88;;;-3.21;71.48
71107;BME280;58763;47.982;11.516;2024-01-16T09:07:24;93489.63;;;-3.18;71.41
71107;BME280;58763;47.982;11.516;2024-01-16T09:09:50;93483.78;;;-3.02;70.99
71107;BME280;58763;47.982;11.516;2024-01-16T09:12:16;93482.53;;;-3.00;70.91
71107;BME280;58763;47.982;11.516;2024-01-16T09:14:41;93479.22;;;-2.95;70.82
71107;BME280;58763;47.982;11.516;2024-01-16T09:17:07;93482.81;;;-2.90;70.21
71107;BME280;58763;47.982;11.516;2024-01-16T09:19:33;93487.44;;;-2.85;69.70
71107;BME280;58763;47.982;11.516;2024-01-16T09:21:58;93481.50;;;-2.81;70.36
71107;BME280;58763;47.982;11.516;2024-01-16T09:24:24;93485.06;;;-2.75;69.49
71107;BME280;58763;47.982;11.516;2024-01-16T09:26:49;93485.47;;;-2.71;69.81
71107;BME280;58763;47.982;11.516;2024-01-16T09:29:15;93485.00;;;-2.50;69.43
71107;BME280;58763;47.982;11.516;2024-01-16T09:31:42;93487.25;;;-2.36;68.91
71107;BME280;58763;47.982;11.516;2024-01-16T09:34:08;93486.91;;;-2.28;68.26
71107;BME280;58763;47.982;11.516;2024-01-16T09:36:34;93484.75;;;-2.19;67.92
71107;BME280;58763;47.982;11.516;2024-01-16T09:39:04;93486.47;;;-2.25;67.37
71107;BME280;58763;47.982;11.516;2024-01-16T09:41:34;93491.44;;;-2.17;67.81
71107;BME280;58763;47.982;11.516;2024-01-16T09:44:00;93480.75;;;-2.10;67.50
71107;BME280;58763;47.982;11.516;2024-01-16T09:46:26;93479.16;;;-2.11;67.62
71107;BME280;58763;47.982;11.516;2024-01-16T09:48:55;93480.09;;;-2.05;67.08
71107;BME280;58763;47.982;11.516;2024-01-16T09:51:22;93478.06;;;-2.22;68.14
71107;BME280;58763;47.982;11.516;2024-01-16T09:53:47;93472.19;;;-2.24;67.90
71107;BME280;58763;47.982;11.516;2024-01-16T09:56:16;93478.25;;;-2.05;67.77
71107;BME280;58763;47.982;11.516;2024-01-16T09:58:48;93475.28;;;-1.97;67.76
71107;BME280;58763;47.982;11.516;2024-01-16T10:01:13;93470.31;;;-1.93;67.55
71107;BME280;58763;47.982;11.516;2024-01-16T10:03:44;93472.88;;;-1.98;67.89
71107;BME280;58763;47.982;11.516;2024-01-16T10:06:10;93470.00;;;-1.85;67.68
71107;BME280;58763;47.982;11.516;2024-01-16T10:08:37;93461.47;;;-1.87;67.48
71107;BME280;58763;47.982;11.516;2024-01-16T10:11:03;93458.75;;;-1.69;67.55
71107;BME280;58763;47.982;11.516;2024-01-16T10:13:28;93461.53;;;-1.64;66.62
71107;BME280;58763;47.982;11.516;2024-01-16T10:15:55;93451.75;;;-1.52;67.03
71107;BME280;58763;47.982;11.516;2024-01-16T10:18:28;93451.50;;;-1.51;66.02
71107;BME280;58763;47.982;11.516;2024-01-16T10:20:56;93444.47;;;-1.57;65.97
71107;BME280;58763;47.982;11.516;2024-01-16T10:23:34;93451.47;;;-1.74;66.40
71107;BME280;58763;47.982;11.516;2024-01-16T10:26:10;93447.69;;;-1.66;66.33
71107;BME280;58763;47.982;11.516;2024-01-16T10:28:38;93448.16;;;-1.69;66.24
71107;BME280;58763;47.982;11.516;2024-01-16T10:31:05;93444.25;;;-1.55;65.76
71107;BME280;58763;47.982;11.516;2024-01-16T10:33:31;93434.31;;;-1.48;65.61
71107;BME280;58763;47.982;11.516;2024-01-16T10:36:27;93440.44;;;-1.36;65.64
71107;BME280;58763;47.982;11.516;2024-01-16T10:39:03;93441.13;;;-1.29;65.33
71107;BME280;58763;47.982;11.516;2024-01-16T10:41:30;93433.88;;;-1.22;64.72
71107;BME280;58763;47.982;11.516;2024-01-16T10:44:06;93439.72;;;-1.08;63.99
71107;BME280;58763;47.982;11.516;2024-01-16T10:46:33;93433.28;;;-1.12;64.10
71107;BME280;58763;47.982;11.516;2024-01-16T10:49:04;93430.63;;;-1.12;63.58
71107;BME280;58763;47.982;11.516;2024-01-16T10:51:31;93424.28;;;-1.23;63.85
71107;BME280;58763;47.982;11.516;2024-01-16T10:54:02;93410.66;;;-1.03;63.65
71107;BME280;58763;47.982;11.516;2024-01-16T10:56:31;93413.84;;;-0.90;62.73
71107;BME280;58763;47.982;11.516;2024-01-16T10:59:18;93413.72;;;-0.83;63.58
71107;BME280;58763;47.982;11.516;2024-01-16T11:01:49;93406.84;;;-0.68;63.87
71107;BME280;58763;47.982;11.516;2024-01-16T11:04:18;93411.25;;;-0.61;62.95
71107;BME280;58763;47.982;11.516;2024-01-16T11:06:47;93411.41;;;-0.40;62.17
71107;BME280;58763;47.982;11.516;2024-01-16T11:09:13;93411.00;;;-0.32;62.14
71107;BME280;58763;47.982;11.516;2024-01-16T11:11:46;93407.25;;;-0.19;60.86
71107;BME280;58763;47.982;11.516;2024-01-16T11:14:15;93407.41;;;-0.09;61.13
71107;BME280;58763;47.982;11.516;2024-01-16T11:16:42;93410.16;;;-0.04;60.54
71107;BME280;58763;47.982;11.516;2024-01-16T11:19:08;93407.28;;;-0.03;60.47
71107;BME280;58763;47.982;11.516;2024-01-16T11:21:36;93403.97;;;0.07;60.43
71107;BME280;58763;47.982;11.516;2024-01-16T11:24:02;93405.81;;;-0.10;61.98
71107;BME280;58763;47.982;11.516;2024-01-16T11:26:30;93402.28;;;0.01;61.45
71107;BME280;58763;47.982;11.516;2024-01-16T11:29:00;93395.59;;;-0.02;61.65
71107;BME280;58763;47.982;11.516;2024-01-16T11:31:28;93399.72;;;0.06;62.44
71107;BME280;58763;47.982;11.516;2024-01-16T11:33:54;93381.09;;;0.06;61.48
71107;BME280;58763;47.982;11.516;2024-01-16T11:36:49;93377.66;;;0.22;61.59
71107;BME280;58763;47.982;11.516;2024-01-16T11:39:23;93376.19;;;0.15;61.42
71107;BME280;58763;47.982;11.516;2024-01-16T11:41:57;93369.09;;;0.20;61.00
71107;BME280;58763;47.982;11.516;2024-01-16T11:44:48;93367.00;;;0.22;60.24
71107;BME280;58763;47.982;11.516;2024-01-16T11:47:19;93373.94;;;0.07;59.17
71107;BME280;58763;47.982;11.516;2024-01-16T11:50:26;93377.97;;;-0.08;60.63
71107;BME280;58763;47.982;11.516;2024-01-16T11:52:45;93365.31;;;-0.01;61.52
71107;BME280;58763;47.982;11.516;2024-01-16T12:01:18;93349.53;;;0.10;58.63
71107;BME280;58763;47.982;11.516;2024-01-16T12:04:02;93339.69;;;0.10;61.54
71107;BME280;58763;47.982;11.516;2024-01-16T12:06:28;93343.81;;;0.18;60.96
71107;BME280;58763;47.982;11.516;2024-01-16T12:08:53;93351.22;;;0.16;60.94
71107;BME280;58763;47.982;11.516;2024-01-16T12:11:19;93348.53;;;0.49;60.71
71107;BME280;58763;47.982;11.516;2024-01-16T12:14:01;93352.91;;;0.77;60.01
71107;BME280;58763;47.982;11.516;2024-01-16T12:16:26;93360.03;;;0.71;59.11
71107;BME280;58763;47.982;11.516;2024-01-16T12:19:07;93346.03;;;0.81;58.81
71107;BME280;58763;47.982;11.516;2024-01-16T12:21:41;93333.75;;;0.75;58.15
71107;BME280;58763;47.982;11.516;2024-01-16T12:24:07;93325.75;;;0.75;57.82
71107;BME280;58763;47.982;11.516;2024-01-16T12:26:33;93325.31;;;0.83;58.67
71107;BME280;58763;47.982;11.516;2024-01-16T12:28:58;93324.34;;;0.89;59.15
71107;BME280;58763;47.982;11.516;2024-01-16T12:31:25;93308.97;;;0.74;57.67
71107;BME280;58763;47.982;11.516;2024-01-16T12:33:51;93307.69;;;0.77;58.36
71107;BME280;58763;47.982;11.516;2024-01-16T12:36:17;93302.91;;;0.79;57.96
71107;BME280;58763;47.982;11.516;2024-01-16T12:38:43;93295.56;;;0.86;56.99
71107;BME280;58763;47.982;11.516;2024-01-16T12:41:10;93296.09;;;0.88;56.53
71107;BME280;58763;47.982;11.516;2024-01-16T12:43:37;93290.31;;;0.91;55.60
71107;BME280;58763;47.982;11.516;2024-01-16T12:46:03;93285.72;;;0.86;55.63
71107;BME280;58763;47.982;11.516;2024-01-16T12:48:29;93279.59;;;0.86;55.82
71107;BME280;58763;47.982;11.516;2024-01-16T12:51:01;93271.59;;;0.86;53.41
71107;BME280;58763;47.982;11.516;2024-01-16T12:53:28;93281.25;;;0.92;53.58
71107;BME280;58763;47.982;11.516;2024-01-16T12:55:58;93279.13;;;0.94;53.87
71107;BME280;58763;47.982;11.516;2024-01-16T12:58:25;93288.06;;;1.04;54.05